メインページ
METAR-TAF:

METAR-TAF

空港 :

オスロ, ノルウェー

オスロ空港

緯度: 60-12N, 経度: 011-05E, 海抜: 208m

現時点の気象観測

当レポートは11分前の11:50(UTC)に作成
西/南西の風 8kt、南/南西から北西の間で変化する
気温 7°C
湿度 36%
気圧 1024 hPa
視程10km以上
1,500メートル以下は雲なし、積乱雲なし

METAR: ENGM 241150Z 25008KT 200V320 CAVOK 07/M07 Q1024 NOSIG

時間: 13:01 (12:01 UTC)

予報

予報は24日の 12時(UTC)から 25日の 12時(UTC)まで有効
変向風 5kt
視程10km以上
1,500メートル以下は雲なし、積乱雲なし
確率 40%
24日の 15時(UTC)から 24日の 21時(UTC)まで
南西の風 10kt

TAF: ENGM 2412/2512 VRB05KT CAVOK PROB40 2415/2421 22010KT

4,000以上の空港の気象観測と天気予報(METAR報とTAF報)

利用可能な観測所は地図上に黄色い丸と赤い丸で示す。

丸の上にカーソルを重ねると観測所名を参照できる。

次にクリックすると気象観測と天気予報を参照できる。

マップの切り替え:黒色「×」印の緑ボタンをクリックして拡大、「-」印の緑ボタンをクリックして縮小、緑色の三角印をクリックして隣りの地図に切り替え


METAR-TAF: